Time;durP1;ratioP1;P1;durP2;ratioP2;P2;SDS_P1;SDS_P2;PMS_P1;PMS_P2;Temp;Humidity;BMP_temperature;BMP_pressure;BME280_temperature;BME280_humidity;BME280_pressure;Samples;Min_cycle;Max_cycle;Signal;HPM_P1;HPM_P2
2023/03/05 00:04:24;;;;;;;5.55;1.10;;;3.10;99.90;;;;;;5977824;23;20092;-86
2023/03/05 00:07:35;;;;;;;8.52;1.02;;;3.10;99.90;;;;;;5987743;23;20020;-84
2023/03/05 00:10:31;;;;;;;8.45;1.00;;;3.40;99.90;;;;;;6031404;23;20067;-86
2023/03/05 00:21:02;;;;;;;;;;;;;;;;;;;;;
2023/03/05 00:24:16;;;;;;;15.13;1.55;;;3.20;99.90;;;;;;5894304;24;20033;-84
2023/03/05 00:27:26;;;;;;;9.88;1.08;;;3.60;99.90;;;;;;5871215;24;20045;-85
2023/03/05 00:30:48;;;;;;;10.23;1.55;;;3.20;99.90;;;;;;5892105;24;20013;-85
2023/03/05 00:34:02;;;;;;;10.98;1.35;;;3.40;99.90;;;;;;5856633;24;20010;-84
2023/03/05 00:37:01;;;;;;;10.77;1.73;;;3.50;99.90;;;;;;5839866;24;20343;-85
2023/03/05 00:39:43;;;;;;;17.27;1.95;;;3.60;99.90;;;;;;5842265;24;20130;-84
2023/03/05 00:43:17;;;;;;;8.45;1.38;;;3.40;99.90;;;;;;5977692;23;20862;-84
2023/03/05 00:46:46;;;;;;;;;;;;;;;;;;;;;
2023/03/05 00:49:36;;;;;;;8.43;1.10;;;3.50;99.90;;;;;;5991528;23;20145;-84
2023/03/05 00:52:47;;;;;;;;;;;;;;;;;;;;;
2023/03/05 00:59:30;;;;;;;9.77;1.10;;;3.20;99.90;;;;;;5920601;24;20096;-86
2023/03/05 01:02:54;;;;;;;4.57;0.87;;;3.50;99.90;;;;;;5974998;24;20086;-86
2023/03/05 01:06:27;;;;;;;5.00;0.80;;;3.30;99.90;;;;;;5977301;23;20031;-84
2023/03/05 01:09:06;;;;;;;6.65;0.80;;;3.40;99.90;;;;;;5980850;23;20055;-84
2023/03/05 01:12:33;;;;;;;6.72;0.95;;;3.20;99.90;;;;;;5977808;23;20499;-85
2023/03/05 01:22:39;;;;;;;7.82;1.33;;;2.90;99.90;;;;;;5920401;24;20021;-86
2023/03/05 02:24:42;;;;;;;8.52;1.10;;;2.60;99.90;;;;;;5658653;22;14279509;-86
2023/03/05 02:27:45;;;;;;;6.43;1.00;;;2.60;99.90;;;;;;6204786;23;20055;-86
2023/03/05 02:30:36;;;;;;;7.25;1.50;;;3.10;99.90;;;;;;6194212;23;20348;-85
2023/03/05 02:33:54;;;;;;;;;;;;;;;;;;;;;
2023/03/05 02:36:32;;;;;;;6.82;1.20;;;2.30;99.90;;;;;;6155102;23;20080;-87
2023/03/05 02:39:44;;;;;;;4.20;0.88;;;3.00;99.90;;;;;;6109355;23;20017;-85
2023/03/05 02:42:36;;;;;;;3.92;1.00;;;2.80;99.90;;;;;;6106806;23;20015;-87
2023/03/05 02:48:52;;;;;;;;;;;;;;;;;;;;;
2023/03/05 02:52:02;;;;;;;;;;;2.80;99.90;;;;;;6156670;23;20026;-84
2023/03/05 02:54:54;;;;;;;4.63;0.93;;;2.70;99.90;;;;;;6125864;23;19936;-84
2023/03/05 02:57:51;;;;;;;4.88;1.10;;;2.90;99.90;;;;;;6096633;23;20025;-86
2023/03/05 03:00:41;;;;;;;7.40;1.13;;;2.90;99.90;;;;;;6073243;23;20308;-85
2023/03/05 03:06:40;;;;;;;5.57;0.95;;;3.00;99.90;;;;;;6202781;23;20020;-87
2023/03/05 03:09:37;;;;;;;7.15;1.17;;;2.60;99.90;;;;;;6147891;22;20013;-86
2023/03/05 03:13:02;;;;;;;5.80;1.15;;;2.80;99.90;;;;;;6149728;23;20055;-86
2023/03/05 03:16:11;;;;;;;8.20;1.15;;;2.50;99.90;;;;;;6153037;23;20108;-85
2023/03/05 03:18:52;;;;;;;10.65;1.00;;;3.20;99.90;;;;;;6151256;23;20017;-85
2023/03/05 03:21:39;;;;;;;12.60;1.40;;;2.50;99.90;;;;;;6150622;23;20036;-86
2023/03/05 03:24:35;;;;;;;7.38;1.17;;;2.60;99.90;;;;;;6156251;23;20029;-84
2023/03/05 03:27:20;;;;;;;10.05;1.35;;;2.90;99.90;;;;;;6152224;23;20038;-86
2023/03/05 03:30:04;;;;;;;9.30;1.08;;;2.40;99.90;;;;;;6178196;23;20020;-85
2023/03/05 03:33:03;;;;;;;12.57;1.10;;;2.50;99.90;;;;;;6029783;23;20015;-85
2023/03/05 03:35:59;;;;;;;7.13;1.25;;;2.50;99.90;;;;;;6013473;23;20047;-87
2023/03/05 03:39:12;;;;;;;13.82;1.27;;;2.40;99.90;;;;;;5904483;24;20020;-85
2023/03/05 03:42:01;;;;;;;5.95;1.33;;;2.90;99.90;;;;;;6000178;23;20442;-82
2023/03/05 03:44:35;;;;;;;8.75;1.20;;;2.50;99.90;;;;;;6071178;23;20018;-83
2023/03/05 03:47:45;;;;;;;8.98;1.35;;;2.80;99.90;;;;;;6073053;23;20017;-88
2023/03/05 03:50:33;;;;;;;9.15;1.33;;;2.80;99.90;;;;;;6098976;23;20110;-85
2023/03/05 03:53:17;;;;;;;6.35;1.17;;;2.40;99.90;;;;;;6073892;23;20025;-86
2023/03/05 03:55:49;;;;;;;5.82;1.13;;;2.80;99.90;;;;;;6075740;23;20077;-84
2023/03/05 04:10:29;;;;;;;9.02;1.50;;;2.40;99.90;;;;;;5980316;23;20023;-86
2023/03/05 04:18:10;;;;;;;;;;;;;;;;;;;;;
2023/03/05 04:21:18;;;;;;;;;;;;;;;;;;;;;
2023/03/05 04:39:16;;;;;;;6.88;1.30;;;2.90;99.90;;;;;;5946651;24;20369;-87
2023/03/05 08:04:32;;;;;;;;;;;;;;;;;;;;;
2023/03/05 08:08:12;;;;;;;15.13;1.50;;;3.70;99.90;;;;;;5934138;24;20021;-83
2023/03/05 08:10:49;;;;;;;8.05;1.30;;;3.50;99.90;;;;;;5878745;24;20025;-86
2023/03/05 08:24:52;;;;;;;;;;;;;;;;;;;;;
2023/03/05 08:32:08;;;;;;;11.13;1.88;;;3.60;99.90;;;;;;5757741;24;20836;-84
2023/03/05 08:55:38;;;;;;;19.23;2.75;;;4.30;99.90;;;;;;6035318;22;5625336;-82
2023/03/05 08:58:04;;;;;;;8.75;1.25;;;4.50;99.90;;;;;;6250009;22;20019;-84
2023/03/05 09:00:29;;;;;;;16.88;1.50;;;4.80;99.90;;;;;;6251034;22;20423;-87
2023/03/05 09:02:56;;;;;;;7.30;1.20;;;4.90;99.90;;;;;;6249062;22;20504;-84
2023/03/05 09:05:22;;;;;;;8.73;1.13;;;4.70;99.90;;;;;;6251926;22;20008;-87
2023/03/05 09:07:48;;;;;;;9.23;1.45;;;4.70;99.90;;;;;;6230288;23;20008;-87
2023/03/05 09:10:14;;;;;;;8.27;1.05;;;4.60;99.90;;;;;;6219588;23;20647;-84
2023/03/05 09:12:48;;;;;;;3.40;0.70;;;3.90;99.90;;;;;;6218677;23;20047;-88
2023/03/05 09:18:43;;;;;;;3.88;0.77;;;3.40;99.90;;;;;;6242352;23;20023;-84
2023/03/05 09:21:16;;;;;;;2.22;0.50;;;3.90;99.90;;;;;;6219775;23;20062;-86
2023/03/05 09:23:43;;;;;;;6.07;0.75;;;3.90;99.90;;;;;;6220027;23;20012;-83
2023/03/05 09:26:11;;;;;;;3.05;0.60;;;4.10;99.90;;;;;;6220754;23;20101;-89
2023/03/05 09:29:30;;;;;;;6.45;0.70;;;3.70;99.90;;;;;;6219671;23;20011;-85
2023/03/05 09:35:00;;;;;;;6.05;0.90;;;4.00;99.90;;;;;;6246102;22;20023;-85
2023/03/05 09:37:55;;;;;;;;;;;;;;;;;;;;;
2023/03/05 09:41:38;;;;;;;3.95;0.80;;;4.30;99.90;;;;;;6121584;23;20014;-87
2023/03/05 09:52:59;;;;;;;;;;;;;;;;;;;;;
2023/03/05 09:59:55;;;;;;;11.82;1.15;;;5.00;99.90;;;;;;5899179;24;20017;-84
2023/03/05 10:03:19;;;;;;;8.73;1.10;;;5.20;99.90;;;;;;5890955;24;20016;-85
2023/03/05 10:58:18;;;;;;;8.07;1.02;;;6.30;99.90;;;;;;6069913;23;20057;-85
2023/03/05 11:01:15;;;;;;;7.65;0.88;;;6.20;99.90;;;;;;5994976;23;20110;-87
2023/03/05 11:04:24;;;;;;;11.20;1.00;;;6.30;99.90;;;;;;6047895;23;20040;-87
2023/03/05 11:07:32;;;;;;;10.18;1.10;;;6.60;99.90;;;;;;6137674;23;20017;-85
2023/03/05 11:14:55;;;;;;;;;;;;;;;;;;;;;
2023/03/05 11:22:34;;;;;;;7.97;1.00;;;6.20;99.90;;;;;;6086239;23;20153;-85
2023/03/05 11:33:40;;;;;;;6.88;0.90;;;6.70;99.90;;;;;;5871821;24;20066;-83
2023/03/05 11:36:54;;;;;;;3.65;0.52;;;6.40;99.90;;;;;;5877783;24;20014;-83
2023/03/05 11:41:03;;;;;;;;;;;;;;;;;;;;;
2023/03/05 12:17:06;;;;;;;7.18;1.00;;;6.10;99.90;;;;;;5466474;22;18825541;-82
2023/03/05 12:20:22;;;;;;;8.23;1.10;;;6.50;99.90;;;;;;6100120;23;20017;-83
2023/03/05 12:23:42;;;;;;;4.40;1.10;;;6.90;99.90;;;;;;6038470;23;20531;-83
2023/03/05 12:26:42;;;;;;;8.52;1.17;;;6.70;99.90;;;;;;6044423;23;20014;-83
2023/03/05 12:33:56;;;;;;;8.13;1.20;;;6.60;99.90;;;;;;6014037;23;20027;-83
2023/03/05 12:37:26;;;;;;;3.63;0.98;;;6.80;99.90;;;;;;5991209;23;20114;-84
2023/03/05 12:40:31;;;;;;;9.82;1.48;;;7.10;99.90;;;;;;5848663;24;20029;-83
2023/03/05 12:44:04;;;;;;;8.05;1.35;;;6.80;99.90;;;;;;5850413;24;20231;-83
2023/03/05 12:47:22;;;;;;;;;;;;;;;;;;;;;
2023/03/05 12:51:12;;;;;;;7.93;1.00;;;6.60;99.90;;;;;;5816738;24;20580;-83
2023/03/05 13:28:41;;;;;;;7.45;1.35;;;6.70;99.90;;;;;;6367003;22;20045;-83
2023/03/05 13:31:45;;;;;;;9.85;1.40;;;6.50;99.90;;;;;;6187644;22;1460214;-83
2023/03/05 13:37:55;;;;;;;6.53;1.15;;;6.70;99.90;;;;;;6180811;23;20029;-83
2023/03/05 13:41:03;;;;;;;;;;;;;;;;;;;;;
2023/03/05 13:44:36;;;;;;;5.65;1.00;;;7.30;99.90;;;;;;6051330;23;20023;-85
2023/03/05 13:55:15;;;;;;;9.07;1.25;;;7.00;99.90;;;;;;5986665;23;20094;-83
2023/03/05 14:06:03;;;;;;;9.13;1.40;;;6.90;99.90;;;;;;5926754;24;20028;-85
2023/03/05 14:21:04;;;;;;;7.07;1.17;;;7.10;99.90;;;;;;5788389;24;20030;-88
2023/03/05 14:30:32;;;;;;;7.32;1.30;;;6.70;99.90;;;;;;5713789;25;20031;-84
2023/03/05 14:40:37;;;;;;;13.30;1.40;;;6.30;99.90;;;;;;5814805;24;20106;-87
2023/03/05 14:43:19;;;;;;;6.10;1.00;;;6.30;99.90;;;;;;5789408;24;20023;-85
2023/03/05 14:45:46;;;;;;;8.40;1.30;;;6.50;99.90;;;;;;5793754;24;20120;-88
2023/03/05 14:59:29;;;;;;;5.90;1.17;;;6.90;99.90;;;;;;5907758;24;20028;-84
2023/03/05 15:05:34;;;;;;;6.90;1.58;;;6.90;99.90;;;;;;5995915;23;20127;-85
2023/03/05 15:08:14;;;;;;;5.40;1.30;;;6.70;99.90;;;;;;5986525;23;20019;-87
2023/03/05 15:11:06;;;;;;;8.85;1.27;;;6.60;99.90;;;;;;5959036;23;20271;-86
2023/03/05 15:13:41;;;;;;;8.40;1.40;;;6.50;99.90;;;;;;5958923;23;20346;-88
2023/03/05 15:16:10;;;;;;;;;;;6.60;99.90;;;;;;5985292;23;20011;-86
2023/03/05 15:18:39;;;;;;;7.30;1.10;;;6.70;99.90;;;;;;5968323;23;19917;-90
2023/03/05 15:21:08;;;;;;;5.15;0.95;;;6.80;99.90;;;;;;5968448;23;20033;-86
2023/03/05 15:23:39;;;;;;;4.32;0.85;;;6.80;99.90;;;;;;5962022;23;20133;-89
2023/03/05 15:26:11;;;;;;;5.43;1.15;;;6.80;99.90;;;;;;5962059;23;20080;-88
2023/03/05 15:28:38;;;;;;;7.60;1.20;;;6.70;99.90;;;;;;6054908;23;20039;-89
2023/03/05 15:31:08;;;;;;;8.50;1.08;;;6.60;99.90;;;;;;6190367;23;20556;-87
2023/03/05 15:33:37;;;;;;;4.13;0.98;;;6.40;99.90;;;;;;6197011;23;20155;-87
2023/03/05 15:36:28;;;;;;;7.80;1.00;;;6.30;99.90;;;;;;6195472;23;20028;-89
2023/03/05 15:38:55;;;;;;;4.10;0.80;;;6.10;99.90;;;;;;6220364;23;20035;-86
2023/03/05 15:41:25;;;;;;;6.00;1.00;;;6.00;99.90;;;;;;6195733;23;20020;-86
2023/03/05 15:43:50;;;;;;;3.13;0.57;;;5.80;99.90;;;;;;6196665;23;20385;-86
2023/03/05 15:46:16;;;;;;;2.90;0.70;;;5.50;99.90;;;;;;6191364;23;20032;-88
2023/03/05 15:48:48;;;;;;;4.05;0.80;;;5.50;99.90;;;;;;6190392;23;20081;-90
2023/03/05 15:51:16;;;;;;;2.55;0.45;;;5.50;99.90;;;;;;6157521;23;20016;-90
2023/03/05 15:53:43;;;;;;;2.28;0.45;;;5.70;99.90;;;;;;6184758;23;20611;-88
2023/03/05 15:56:16;;;;;;;3.33;0.65;;;5.80;99.90;;;;;;6185196;23;20020;-87
2023/03/05 15:58:59;;;;;;;2.20;0.90;;;5.90;99.90;;;;;;6182802;23;20349;-88
2023/03/05 16:02:06;;;;;;;3.80;0.90;;;6.10;99.90;;;;;;6158193;23;20593;-91
2023/03/05 16:04:32;;;;;;;3.92;0.93;;;6.00;99.90;;;;;;6159719;23;20017;-85
2023/03/05 16:07:05;;;;;;;6.90;1.00;;;6.00;99.90;;;;;;6180730;23;20020;-86
2023/03/05 16:09:51;;;;;;;10.27;0.90;;;6.00;99.90;;;;;;6179187;23;20024;-85
2023/03/05 16:12:39;;;;;;;5.82;1.08;;;6.00;99.90;;;;;;6180202;23;20028;-89
2023/03/05 16:15:33;;;;;;;6.35;1.10;;;6.10;99.90;;;;;;6180044;23;20020;-86
2023/03/05 16:25:54;;;;;;;12.68;1.30;;;5.80;99.90;;;;;;6059504;23;20026;-87
2023/03/05 16:29:02;;;;;;;7.38;1.20;;;5.60;99.90;;;;;;6011412;23;20019;-85
2023/03/05 16:44:40;;;;;;;7.05;1.60;;;5.40;99.90;;;;;;5838254;24;20183;-85
2023/03/05 16:47:22;;;;;;;4.88;1.15;;;5.40;99.90;;;;;;5790647;24;20830;-82
2023/03/05 16:50:00;;;;;;;4.97;0.93;;;5.00;99.90;;;;;;5814589;24;20448;-86
2023/03/05 16:53:12;;;;;;;4.53;0.98;;;5.20;99.90;;;;;;5794023;24;20006;-84
2023/03/05 16:55:38;;;;;;;5.38;1.42;;;4.90;99.90;;;;;;5794844;24;20303;-82
2023/03/05 16:58:16;;;;;;;6.18;1.00;;;5.00;99.90;;;;;;5819242;24;20110;-85
2023/03/05 17:00:42;;;;;;;4.70;1.00;;;5.00;99.90;;;;;;5812564;24;20013;-85
2023/03/05 17:06:59;;;;;;;3.08;0.70;;;4.60;99.90;;;;;;5893540;24;20443;-86
2023/03/05 17:09:27;;;;;;;6.05;1.13;;;4.70;99.90;;;;;;5921359;24;20013;-86
2023/03/05 17:11:53;;;;;;;5.45;1.17;;;4.60;99.90;;;;;;5897568;24;20501;-85
2023/03/05 17:14:19;;;;;;;4.43;1.10;;;4.80;99.90;;;;;;5899730;24;20028;-84
2023/03/05 17:16:45;;;;;;;9.95;1.50;;;4.50;99.90;;;;;;5905252;24;20047;-85
2023/03/05 17:19:12;;;;;;;5.95;1.20;;;4.70;99.90;;;;;;6043255;23;20014;-86
2023/03/05 17:21:38;;;;;;;3.95;1.17;;;4.60;99.90;;;;;;6120883;23;20342;-84
2023/03/05 17:24:04;;;;;;;6.97;1.33;;;4.50;99.90;;;;;;6179140;23;20017;-86
2023/03/05 17:26:35;;;;;;;4.75;1.13;;;4.30;99.90;;;;;;6154300;23;20748;-87
2023/03/05 17:29:07;;;;;;;8.73;1.30;;;4.30;99.90;;;;;;6179995;23;20045;-84
2023/03/05 17:31:33;;;;;;;7.40;1.20;;;4.60;99.90;;;;;;6180870;23;20017;-86
2023/03/05 17:33:59;;;;;;;6.88;1.00;;;4.30;99.90;;;;;;6157310;23;20032;-84
2023/03/05 17:36:25;;;;;;;6.20;1.13;;;4.30;99.90;;;;;;6181986;23;20013;-85
2023/03/05 17:38:51;;;;;;;4.60;1.10;;;4.10;99.90;;;;;;6181672;23;20441;-85
2023/03/05 17:41:18;;;;;;;8.43;1.35;;;4.10;99.90;;;;;;6180457;23;20028;-84
2023/03/05 17:43:44;;;;;;;6.80;1.50;;;4.30;99.90;;;;;;6178746;23;20083;-85
2023/03/05 17:46:11;;;;;;;8.10;1.50;;;4.00;99.90;;;;;;6203806;23;20321;-85
2023/03/05 17:49:15;;;;;;;8.45;1.58;;;4.00;99.90;;;;;;6181447;23;20013;-86
2023/03/05 17:51:41;;;;;;;6.63;1.40;;;4.30;99.90;;;;;;6181236;23;20013;-86
2023/03/05 17:54:09;;;;;;;5.40;1.70;;;3.90;99.90;;;;;;6180991;23;20013;-86
2023/03/05 17:56:35;;;;;;;9.20;1.85;;;3.90;99.90;;;;;;6179962;23;20025;-85
2023/03/05 17:59:03;;;;;;;5.55;1.38;;;4.20;99.90;;;;;;6181827;23;20091;-86
2023/03/05 18:01:32;;;;;;;7.72;1.70;;;4.20;99.90;;;;;;6178376;23;20021;-87
2023/03/05 18:04:00;;;;;;;9.98;1.77;;;4.20;99.90;;;;;;6179880;23;20287;-84
2023/03/05 18:06:26;;;;;;;5.88;1.20;;;4.10;99.90;;;;;;6178714;23;20032;-86
2023/03/05 18:08:52;;;;;;;6.18;1.40;;;4.20;99.90;;;;;;6178736;23;20053;-84
2023/03/05 18:11:18;;;;;;;9.38;3.10;;;3.80;99.90;;;;;;6177048;23;20354;-84
2023/03/05 18:13:44;;;;;;;4.63;1.27;;;3.90;99.90;;;;;;6178308;23;20048;-84
2023/03/05 18:16:13;;;;;;;7.90;1.85;;;3.90;99.90;;;;;;6178173;23;20445;-86
2023/03/05 18:18:38;;;;;;;3.67;1.35;;;4.00;99.90;;;;;;6178012;23;20035;-84
2023/03/05 18:21:04;;;;;;;2.60;1.20;;;4.10;99.90;;;;;;6175723;23;20017;-85
2023/03/05 18:23:30;;;;;;;5.32;1.55;;;4.00;99.90;;;;;;6155453;23;20044;-85
2023/03/05 18:25:55;;;;;;;5.25;1.73;;;3.90;99.90;;;;;;6155256;23;20032;-84
2023/03/05 18:28:21;;;;;;;7.15;1.63;;;4.00;99.90;;;;;;6180015;23;20017;-84
2023/03/05 18:30:47;;;;;;;7.38;2.40;;;4.00;99.90;;;;;;6155353;23;20021;-84
2023/03/05 18:33:19;;;;;;;5.78;2.00;;;4.10;99.90;;;;;;6131877;23;20021;-84
2023/03/05 18:35:48;;;;;;;7.03;2.20;;;3.70;99.90;;;;;;6130700;23;20131;-84
2023/03/05 18:38:14;;;;;;;5.07;1.63;;;4.00;99.90;;;;;;6126822;23;20059;-84
2023/03/05 18:40:40;;;;;;;5.10;1.40;;;3.80;99.90;;;;;;6132385;23;20013;-85
2023/03/05 18:43:05;;;;;;;7.50;1.60;;;4.00;99.90;;;;;;6154547;23;20016;-85
2023/03/05 18:45:33;;;;;;;12.40;2.03;;;3.90;99.90;;;;;;6127944;23;20017;-84
2023/03/05 18:47:58;;;;;;;8.95;1.80;;;3.80;99.90;;;;;;6129796;23;20013;-85
2023/03/05 18:50:26;;;;;;;6.68;1.77;;;3.80;99.90;;;;;;6156550;23;20035;-86
2023/03/05 18:52:52;;;;;;;4.90;1.55;;;3.80;99.90;;;;;;6130312;23;20088;-85
2023/03/05 18:55:31;;;;;;;8.40;1.83;;;3.50;99.90;;;;;;6126845;23;20060;-84
2023/03/05 18:58:09;;;;;;;4.55;1.38;;;3.30;99.90;;;;;;6090780;23;20018;-85
2023/03/05 19:00:51;;;;;;;9.37;2.03;;;3.50;99.90;;;;;;6114983;23;20045;-85
2023/03/05 19:03:17;;;;;;;9.52;2.03;;;3.00;99.90;;;;;;6091836;23;20014;-84
2023/03/05 19:06:18;;;;;;;;;;;;;;;;;;;;;
2023/03/05 19:09:53;;;;;;;9.65;2.13;;;3.00;99.90;;;;;;5976693;23;20099;-85
2023/03/05 19:12:20;;;;;;;10.20;3.55;;;3.30;99.90;;;;;;5976678;23;20015;-84
2023/03/05 19:14:46;;;;;;;9.00;2.55;;;3.20;99.90;;;;;;5977938;23;20035;-83
2023/03/05 19:17:22;;;;;;;11.73;2.40;;;3.40;99.90;;;;;;5975916;23;20019;-84
2023/03/05 19:19:57;;;;;;;7.40;2.63;;;2.90;99.90;;;;;;5977452;23;20056;-83
2023/03/05 19:22:37;;;;;;;8.05;1.95;;;3.40;99.90;;;;;;5977762;23;20024;-84
2023/03/05 19:25:08;;;;;;;12.48;2.42;;;3.40;99.90;;;;;;5953253;24;20035;-85
2023/03/05 19:27:34;;;;;;;7.93;2.35;;;2.90;99.90;;;;;;5972829;24;20016;-84
2023/03/05 19:30:00;;;;;;;9.40;2.10;;;3.10;99.90;;;;;;6025166;23;20055;-83
2023/03/05 19:32:26;;;;;;;8.52;2.08;;;2.90;99.90;;;;;;6035489;23;20451;-85
2023/03/05 19:34:58;;;;;;;8.40;2.15;;;3.40;99.90;;;;;;6058931;23;20055;-84
2023/03/05 19:37:24;;;;;;;6.22;2.10;;;3.30;99.90;;;;;;6035078;23;20374;-85
2023/03/05 19:39:50;;;;;;;10.57;2.47;;;3.10;99.90;;;;;;6036174;23;20035;-84
2023/03/05 19:42:16;;;;;;;7.55;2.17;;;2.90;99.90;;;;;;6035248;23;20045;-86
2023/03/05 19:44:41;;;;;;;6.38;1.80;;;3.10;99.90;;;;;;6046000;23;20026;-84
2023/03/05 19:51:33;;;;;;;15.15;2.15;;;2.90;99.90;;;;;;6178359;23;20044;-85
2023/03/05 19:53:59;;;;;;;11.77;2.55;;;3.40;99.90;;;;;;6124577;23;20017;-82
2023/03/05 19:56:30;;;;;;;11.63;2.17;;;2.90;99.90;;;;;;6117810;23;20075;-85
2023/03/05 19:58:59;;;;;;;7.57;2.10;;;3.30;99.90;;;;;;6130200;23;20013;-83
2023/03/05 20:01:26;;;;;;;10.27;2.42;;;2.90;99.90;;;;;;6128750;23;20021;-84
2023/03/05 20:03:54;;;;;;;12.05;2.05;;;3.40;99.90;;;;;;6129421;23;20009;-84
2023/03/05 20:06:21;;;;;;;7.82;1.80;;;3.10;99.90;;;;;;6128520;23;20021;-83
2023/03/05 20:08:47;;;;;;;6.38;1.83;;;3.00;99.90;;;;;;6150587;23;20020;-84
2023/03/05 20:11:14;;;;;;;13.98;2.00;;;3.00;99.90;;;;;;6125277;23;20017;-84
2023/03/05 20:13:40;;;;;;;9.25;2.10;;;3.40;99.90;;;;;;6151681;23;20390;-83
2023/03/05 20:16:23;;;;;;;11.52;2.10;;;3.30;99.90;;;;;;6125108;23;20027;-82
2023/03/05 20:18:51;;;;;;;9.70;1.77;;;3.50;99.90;;;;;;6125801;23;20060;-84
2023/03/05 20:21:23;;;;;;;7.03;1.73;;;3.50;99.90;;;;;;6125752;23;20091;-83
2023/03/05 20:23:53;;;;;;;7.05;2.25;;;3.00;99.90;;;;;;6127579;23;20028;-84
2023/03/05 20:26:20;;;;;;;13.05;2.20;;;2.90;99.90;;;;;;6180259;23;20016;-84
2023/03/05 20:28:47;;;;;;;12.38;2.15;;;3.20;99.90;;;;;;6183053;23;20091;-83
2023/03/05 20:31:13;;;;;;;9.02;2.20;;;3.00;99.90;;;;;;6174486;23;20013;-84
2023/03/05 20:33:38;;;;;;;6.38;1.75;;;3.10;99.90;;;;;;6173834;23;20029;-84
2023/03/05 20:36:04;;;;;;;9.00;1.70;;;3.30;99.90;;;;;;6176827;23;20088;-81
2023/03/05 20:38:31;;;;;;;8.88;1.85;;;3.00;99.90;;;;;;6175161;23;20096;-83
2023/03/05 20:40:57;;;;;;;6.93;1.50;;;3.00;99.90;;;;;;6175495;23;20127;-83
2023/03/05 20:43:36;;;;;;;5.95;1.60;;;3.10;99.90;;;;;;6150845;23;20013;-85
2023/03/05 20:46:03;;;;;;;8.95;1.80;;;3.40;99.90;;;;;;6175918;23;20021;-82
2023/03/05 20:48:32;;;;;;;9.02;1.90;;;3.20;99.90;;;;;;6177167;23;20013;-84
2023/03/05 20:51:19;;;;;;;8.02;1.45;;;3.20;99.90;;;;;;6174581;23;20060;-82
2023/03/05 20:53:45;;;;;;;6.18;1.65;;;3.40;99.90;;;;;;6176233;23;20036;-83
2023/03/05 20:56:11;;;;;;;5.20;1.65;;;3.40;99.90;;;;;;6176744;23;20434;-83
2023/03/05 20:58:37;;;;;;;7.05;1.83;;;3.20;99.90;;;;;;6178068;23;20101;-83
2023/03/05 21:01:03;;;;;;;8.38;1.98;;;3.20;99.90;;;;;;6176363;23;20096;-83
2023/03/05 21:03:29;;;;;;;9.10;2.00;;;3.10;99.90;;;;;;6153872;23;20009;-83
2023/03/05 21:06:01;;;;;;;13.13;2.67;;;3.50;99.90;;;;;;6152963;23;20017;-83
2023/03/05 21:08:27;;;;;;;7.32;1.75;;;3.30;99.90;;;;;;6176936;23;20048;-83
2023/03/05 21:10:53;;;;;;;8.68;1.75;;;3.10;99.90;;;;;;6177074;23;20504;-83
2023/03/05 21:13:19;;;;;;;8.50;1.95;;;3.00;99.90;;;;;;6177348;23;20091;-85
2023/03/05 21:15:44;;;;;;;8.65;1.77;;;3.10;99.90;;;;;;6175625;23;20064;-84
2023/03/05 21:18:13;;;;;;;5.07;1.77;;;3.00;99.90;;;;;;6176384;23;20013;-84
2023/03/05 21:20:51;;;;;;;6.13;1.90;;;2.90;99.90;;;;;;6175745;23;20021;-84
2023/03/05 21:23:17;;;;;;;9.10;1.92;;;2.90;99.90;;;;;;6176454;23;20013;-84
2023/03/05 21:25:50;;;;;;;8.95;2.03;;;2.90;99.90;;;;;;6154210;23;20112;-84
2023/03/05 21:28:19;;;;;;;7.10;1.60;;;3.00;99.90;;;;;;6152852;23;20096;-84
2023/03/05 21:30:48;;;;;;;5.15;1.77;;;3.00;99.90;;;;;;6176953;23;20017;-83
2023/03/05 21:33:30;;;;;;;9.65;2.00;;;3.20;99.90;;;;;;6179299;23;20128;-83
2023/03/05 21:35:59;;;;;;;10.70;2.20;;;3.30;99.90;;;;;;6179486;23;20479;-83
2023/03/05 21:38:28;;;;;;;6.80;1.75;;;3.20;99.90;;;;;;6178914;23;20124;-84
2023/03/05 21:41:29;;;;;;;4.88;1.30;;;3.40;99.90;;;;;;6203639;23;20009;-85
2023/03/05 21:44:31;;;;;;;;;;;3.10;99.90;;;;;;6178903;23;20246;-84
2023/03/05 21:47:58;;;;;;;5.32;1.80;;;3.40;99.90;;;;;;6158264;23;19917;-83
2023/03/05 21:50:35;;;;;;;4.65;1.60;;;3.10;99.90;;;;;;6064058;23;20018;-83
2023/03/05 21:53:05;;;;;;;8.45;1.65;;;3.40;99.90;;;;;;6066900;23;20053;-83
2023/03/05 21:59:41;;;;;;;9.52;1.90;;;3.40;99.90;;;;;;5156420;27;20767;-83
2023/03/05 22:02:17;;;;;;;6.95;1.80;;;3.40;99.90;;;;;;5102612;27;20071;-83
2023/03/05 22:04:54;;;;;;;9.18;1.80;;;3.40;99.90;;;;;;5101965;27;20055;-84
2023/03/05 22:07:23;;;;;;;6.65;1.60;;;3.40;99.90;;;;;;5103255;28;20040;-84
2023/03/05 22:09:54;;;;;;;7.13;1.25;;;3.20;99.90;;;;;;5077597;28;20078;-84
2023/03/05 22:15:52;;;;;;;;;;;3.00;99.90;;;;;;5092764;28;20074;-84
2023/03/05 22:18:25;;;;;;;9.25;1.40;;;3.60;99.90;;;;;;5078252;27;20082;-84
2023/03/05 22:20:54;;;;;;;5.68;1.60;;;3.30;99.90;;;;;;5074506;28;20118;-83
2023/03/05 22:23:37;;;;;;;8.50;1.30;;;3.40;99.90;;;;;;5087856;28;20044;-83
2023/03/05 22:26:06;;;;;;;5.97;1.30;;;3.50;99.90;;;;;;5082130;28;20494;-83
2023/03/05 22:28:39;;;;;;;9.60;1.63;;;3.60;99.90;;;;;;5081263;28;20099;-84
2023/03/05 22:31:05;;;;;;;7.40;1.85;;;3.60;99.90;;;;;;5082212;28;20043;-83
2023/03/05 22:33:33;;;;;;;9.82;1.50;;;3.60;99.90;;;;;;5073584;28;20871;-84
2023/03/05 22:36:07;;;;;;;5.78;1.33;;;3.60;99.90;;;;;;5078331;27;20100;-84
2023/03/05 22:38:36;;;;;;;6.57;1.45;;;3.10;99.90;;;;;;5096859;28;20039;-85
2023/03/05 22:41:09;;;;;;;11.90;1.33;;;3.30;99.90;;;;;;5075847;28;20043;-84
2023/03/05 22:43:40;;;;;;;5.63;1.75;;;3.30;99.90;;;;;;5086406;28;20028;-83
2023/03/05 22:46:19;;;;;;;9.40;1.52;;;3.60;99.90;;;;;;5074961;28;20449;-83
2023/03/05 22:48:48;;;;;;;5.90;1.90;;;3.60;99.90;;;;;;5075669;28;20040;-84
2023/03/05 22:51:18;;;;;;;6.38;1.65;;;3.50;99.90;;;;;;5076345;28;20039;-84
2023/03/05 22:53:49;;;;;;;6.38;1.50;;;3.20;99.90;;;;;;5077709;28;20044;-83
2023/03/05 22:56:22;;;;;;;10.70;1.85;;;3.50;99.90;;;;;;5074343;28;20469;-84
2023/03/05 22:58:48;;;;;;;3.88;1.42;;;3.70;99.90;;;;;;5076986;28;20076;-84
2023/03/05 23:01:24;;;;;;;11.80;1.90;;;3.80;99.90;;;;;;5073245;28;20047;-83
2023/03/05 23:07:26;;;;;;;6.10;1.77;;;3.40;99.90;;;;;;5079944;28;20717;-83
2023/03/05 23:10:00;;;;;;;9.20;1.88;;;3.70;99.90;;;;;;5082465;28;20070;-83
2023/03/05 23:12:30;;;;;;;8.85;1.90;;;3.70;99.90;;;;;;5058830;28;20115;-84
2023/03/05 23:15:06;;;;;;;7.13;1.58;;;3.50;99.90;;;;;;5065672;28;20430;-84
2023/03/05 23:17:35;;;;;;;9.05;1.88;;;3.40;99.90;;;;;;5057701;28;20047;-85
2023/03/05 23:20:19;;;;;;;3.20;1.00;;;3.30;99.90;;;;;;4981982;28;20137;-84
2023/03/05 23:22:52;;;;;;;4.18;1.00;;;3.40;99.90;;;;;;4971333;28;20097;-83
2023/03/05 23:25:21;;;;;;;5.22;1.02;;;3.60;99.90;;;;;;4984691;28;20080;-84
2023/03/05 23:27:48;;;;;;;6.53;1.20;;;3.30;99.90;;;;;;4970418;28;20066;-84
2023/03/05 23:30:24;;;;;;;3.78;1.00;;;3.60;99.90;;;;;;4977810;28;20108;-84
2023/03/05 23:33:03;;;;;;;5.70;1.10;;;3.50;99.90;;;;;;4964602;28;20205;-84
2023/03/05 23:35:32;;;;;;;3.33;1.00;;;3.00;99.90;;;;;;4961432;28;20096;-84
2023/03/05 23:38:06;;;;;;;8.02;1.00;;;2.90;99.90;;;;;;4980669;28;20051;-84
2023/03/05 23:40:47;;;;;;;4.50;0.98;;;3.30;99.90;;;;;;4979977;28;20087;-84
2023/03/05 23:43:20;;;;;;;8.65;1.20;;;3.30;99.90;;;;;;4969124;28;20060;-85
2023/03/05 23:45:48;;;;;;;6.78;1.50;;;3.40;99.90;;;;;;4972005;28;20528;-85
2023/03/05 23:48:19;;;;;;;7.82;1.20;;;3.40;99.90;;;;;;4969764;28;20433;-84
2023/03/05 23:50:47;;;;;;;9.80;1.75;;;2.90;99.90;;;;;;4967997;28;20064;-84
2023/03/05 23:53:35;;;;;;;7.40;1.50;;;3.00;99.90;;;;;;4965317;28;20054;-84
2023/03/05 23:56:26;;;;;;;6.72;1.35;;;3.20;99.90;;;;;;4989207;28;20092;-85
2023/03/05 23:59:03;;;;;;;4.82;1.10;;;3.20;99.90;;;;;;5089291;28;20072;-84
